Terminal Aerodrome Forecast
Issued by NWS Cleveland, OH

Home | Current Version | Previous Version | Graphics & Text | Print | Product List | Glossary Off
Versions: 1 2 3 4 5 6 7 8 9 10 11 12 13 14 15

000
FTUS41 KCLE 221141
TAFTOL
TAF
KTOL 221141Z 2212/2312 22009KT P6SM -SHRA VCTS SCT040CB OVC200
     FM221300 24010KT P6SM VCTS SCT040CB BKN050
     FM222000 27013KT P6SM -SHRA SCT040 BKN080
     FM222300 29011KT P6SM SCT100
     FM230300 30007KT P6SM SKC=

USA.gov is the U.S. government's official web portal to all federal, state and local government web resources and services.